Bookmark and Share
Track history (hours):
 

MSC Davos

Last reported at 2014-Apr-17 19:33 UTC. Time now 2014-Apr-20 08:47 UTC.
Position N 48°53' W 005°48'.

Length 210.9 m; beam 32.3 m; draft 12 m.

Type: Cargo ship. MMSI: 636090972.

NotesDate/timePositionNaut miles runAvg speedWind from/ knotsBaromVisibWave heightAir tempDewpointWater temp
2014-Apr-17 19:33N 48°53' W 005°48'9813.4
2014-Apr-17 12:17N 49°43' W 003°39'1315.9
2014-Apr-17 11:29N 49°49' W 003°22'1714.7
2014-Apr-17 10:18N 49°58' W 002°59'1113.1
2014-Apr-17 09:27N 50°02' W 002°43'1112.2
2014-Apr-17 08:33N 50°05' W 002°26'1110.6
2014-Apr-17 07:32N 50°08' W 002°10'1111.1
2014-Apr-17 06:33N 50°11' W 001°54'1312.8
2014-Apr-17 05:33N 50°15' W 001°34'1514.8
2014-Apr-17 04:33N 50°19' W 001°12'1616.1
2014-Apr-17 03:33N 50°23' W 000°48'1515.5
2014-Apr-17 02:33N 50°28' W 000°25'1414.4
2014-Apr-17 01:33N 50°32' W 000°03'1313.4
2014-Apr-17 00:33N 50°35' E 000°18'1212.4
2014-Apr-16 23:33N 50°39' E 000°36'1211.9
2014-Apr-16 22:33N 50°46' E 000°51'1312.7
2014-Apr-16 21:33N 50°54' E 001°07'1515.1
2014-Apr-16 20:34N 51°03' E 001°26'1616.5
2014-Apr-16 19:33N 51°14' E 001°46'1414.2
2014-Apr-16 18:34N 51°24' E 002°02'1313.4
2014-Apr-16 17:33N 51°22' E 002°23'1313.2
2014-Apr-16 16:34N 51°22' E 002°45'1514.7
2014-Apr-16 15:33N 51°24' E 003°08'1615.7
2014-Apr-16 14:33N 51°26' E 003°33'1111.3
2014-Apr-16 13:34N 51°21' E 003°49'10 9.9
2014-Apr-16 12:33N 51°22' E 004°05'7 6.8
2014-Apr-16 11:33N 51°21' E 004°16'0 0.0
2014-Apr-16 10:33N 51°21' E 004°16'0 0.0
2014-Apr-16 09:34N 51°21' E 004°16'0 0.0
2014-Apr-16 08:33N 51°21' E 004°16'0 0.0
2014-Apr-16 07:33N 51°21' E 004°16'0 0.0
2014-Apr-16 06:33N 51°21' E 004°16'0 0.0
2014-Apr-16 05:33N 51°21' E 004°16'0 0.0
2014-Apr-16 04:33N 51°21' E 004°16'0 0.0
2014-Apr-16 03:33N 51°21' E 004°16'0 0.0
2014-Apr-16 02:34N 51°21' E 004°16'0 0.0
2014-Apr-16 01:34N 51°21' E 004°16'0 0.0
2014-Apr-16 00:34N 51°21' E 004°16'0 0.0
2014-Apr-15 23:34N 51°21' E 004°16'0 0.0
2014-Apr-15 22:33N 51°21' E 004°16'4 4.4
2014-Apr-15 21:33N 51°23' E 004°09'8 7.8
2014-Apr-15 20:33N 51°23' E 003°57'9 9.4
2014-Apr-15 19:33N 51°25' E 003°42'1111.0
2014-Apr-15 18:33N 51°24' E 003°24'1514.7
2014-Apr-15 17:33N 51°25' E 003°01'1716.2
2014-Apr-15 16:31N 51°40' E 003°12'1212.0
2014-Apr-15 15:33N 51°51' E 003°18'110 8.5
2014-Apr-15 02:33N 53°29' E 004°41'1313.4
2014-Apr-15 01:34N 53°34' E 005°02'1414.1
2014-Apr-15 00:34N 53°38' E 005°25'1414.0
2014-Apr-14 23:34N 53°43' E 005°47'1413.5
2014-Apr-14 22:34N 53°47' E 006°09'3511.6
2014-Apr-14 19:33N 53°57' E 007°06'1010.3
2014-Apr-14 18:34N 53°59' E 007°23'10 9.8
2014-Apr-14 17:34N 54°01' E 007°39'1010.4
2014-Apr-14 16:34N 54°01' E 007°57'1212.2
2014-Apr-14 15:34N 54°00' E 008°18'1716.8
2014-Apr-14 14:34N 53°53' E 008°43'1414.2
2014-Apr-14 13:34N 53°53' E 009°07'2412.1
2014-Apr-14 11:34N 53°36' E 009°36'1010.0
2014-Apr-14 10:34N 53°33' E 009°52'3 3.2
2014-Apr-14 09:32N 53°32' E 009°58'0 0.0
2014-Apr-14 07:32N 53°32' E 009°58'0 0.0
2014-Apr-14 06:32N 53°32' E 009°58'0 0.0
2014-Apr-14 05:32N 53°32' E 009°58'2 0.3
2014-Apr-13 22:30N 53°30' E 009°56'0 0.0
2014-Apr-13 21:27N 53°30' E 009°56'0 0.0
2014-Apr-13 20:34N 53°30' E 009°56'0 0.5
2014-Apr-13 19:33N 53°31' E 009°56'2 1.7
2014-Apr-13 18:33N 53°32' E 009°58'0 0.0
2014-Apr-13 17:27N 53°32' E 009°58'0 0.0
2014-Apr-13 16:33N 53°32' E 009°58'0 0.0
2014-Apr-13 15:33N 53°32' E 009°58'0 0.0
2014-Apr-13 14:33N 53°32' E 009°58'0 0.0
2014-Apr-13 13:30N 53°32' E 009°58'0 0.0
2014-Apr-13 12:33N 53°32' E 009°58'0 0.0
2014-Apr-13 11:33N 53°32' E 009°58'0 0.0
2014-Apr-13 10:33N 53°32' E 009°58'0 0.0
2014-Apr-13 09:33N 53°32' E 009°58'0 0.0
2014-Apr-13 08:33N 53°32' E 009°58'0 0.0
2014-Apr-13 07:30N 53°32' E 009°58'0 0.0
2014-Apr-13 06:33N 53°32' E 009°58'0 0.0
2014-Apr-13 05:21N 53°32' E 009°58'0 0.0
2014-Apr-13 04:33N 53°32' E 009°58'0 0.0
2014-Apr-13 03:30N 53°32' E 009°58'0 0.0
2014-Apr-13 02:33N 53°32' E 009°58'0 0.0
2014-Apr-13 01:33N 53°32' E 009°58'0 0.0
2014-Apr-13 00:33N 53°32' E 009°58'0 0.0
2014-Apr-12 23:30N 53°32' E 009°58'0 0.0
2014-Apr-12 22:33N 53°32' E 009°58'0 0.0
2014-Apr-12 21:33N 53°32' E 009°58'0 0.0
2014-Apr-12 20:33N 53°32' E 009°58'0 0.0
2014-Apr-12 19:27N 53°32' E 009°58'0 0.0
2014-Apr-12 18:30N 53°32' E 009°58'0 0.0
2014-Apr-12 17:33N 53°32' E 009°58'0 0.0
2014-Apr-12 16:33N 53°32' E 009°58'0 0.0
2014-Apr-12 15:33N 53°32' E 009°58'0 0.0
2014-Apr-12 14:27N 53°32' E 009°58'0 0.0
2014-Apr-12 13:30N 53°32' E 009°58'0 0.0
2014-Apr-12 12:33N 53°32' E 009°58'0 0.0
2014-Apr-12 11:27N 53°32' E 009°58'0 0.0
2014-Apr-12 10:24N 53°32' E 009°58'0 0.0
2014-Apr-12 09:33N 53°32' E 009°58'0 0.0
2014-Apr-12 08:24N 53°32' E 009°58'0 0.0
2014-Apr-12 07:33N 53°32' E 009°58'1 1.2
2014-Apr-12 06:32N 53°32' E 009°56'2 1.7
2014-Apr-12 05:26N 53°31' E 009°56'0 0.0
2014-Apr-12 04:32N 53°31' E 009°56'0 0.0
2014-Apr-12 03:32N 53°31' E 009°56'0 0.0
2014-Apr-12 02:32N 53°31' E 009°56'0 0.0
2014-Apr-12 01:32N 53°31' E 009°56'0 0.0
2014-Apr-12 00:32N 53°31' E 009°56'0 0.0
2014-Apr-11 23:32N 53°31' E 009°56'0 0.0
2014-Apr-11 22:32N 53°31' E 009°56'0 0.0
2014-Apr-11 21:28N 53°31' E 009°56'0 0.0
2014-Apr-11 20:31N 53°31' E 009°56'4 4.1
2014-Apr-11 19:33N 53°33' E 009°51'10 9.7
2014-Apr-11 18:34N 53°36' E 009°35'1110.9
2014-Apr-11 17:33N 53°45' E 009°25'1212.0
2014-Apr-11 16:34N 53°53' E 009°09'1211.7
2014-Apr-11 15:33N 53°50' E 008°50'1211.6
2014-Apr-11 14:34N 53°58' E 008°35'1515.0
2014-Apr-11 13:33N 53°60' E 008°10'1111.5
2014-Apr-11 12:33N 53°58' E 007°50'1413.6
2014-Apr-11 11:33N 53°55' E 007°28'1514.7
2014-Apr-11 10:33N 53°51' E 007°04'3112.5
2014-Apr-11 08:06N 53°44' E 006°13'712.6
2014-Apr-11 07:33N 53°41' E 006°02'1312.9
2014-Apr-11 06:34N 53°38' E 005°42'1313.3
2014-Apr-11 05:34N 53°33' E 005°20'1514.6
2014-Apr-11 04:34N 53°29' E 004°57'1413.7
2014-Apr-11 03:34N 53°20' E 004°39'1514.7
2014-Apr-11 02:34N 53°07' E 004°28'1514.9
2014-Apr-11 01:33N 52°54' E 004°15'1514.7
2014-Apr-11 00:34N 52°41' E 004°03'1414.5
2014-Apr-10 23:33N 52°32' E 003°45'1312.9
2014-Apr-10 22:33N 52°20' E 003°38'1414.1
2014-Apr-10 21:32N 52°07' E 003°26'1313.4
2014-Apr-10 20:33N 51°54' E 003°22'1212.3
2014-Apr-10 19:33N 51°44' E 003°13'1615.9
2014-Apr-10 18:33N 51°29' E 003°02'1313.0
2014-Apr-10 17:34N 51°24' E 003°22'1312.6
2014-Apr-10 16:33N 51°25' E 003°42'1010.1
2014-Apr-10 15:34N 51°26' E 003°58'1111.3
2014-Apr-10 14:33N 51°21' E 004°15'1 1.4
2014-Apr-10 13:33N 51°20' E 004°17'0 0.0
2014-Apr-10 12:33N 51°20' E 004°17'0 0.0
2014-Apr-10 11:33N 51°20' E 004°17'0 0.0
2014-Apr-10 10:33N 51°20' E 004°17'0 0.0
2014-Apr-10 09:33N 51°20' E 004°17'0 0.0
2014-Apr-10 08:33N 51°20' E 004°17'0 0.0
2014-Apr-10 07:33N 51°20' E 004°17'0 0.0
2014-Apr-10 06:33N 51°20' E 004°17'0 0.0
2014-Apr-10 05:33N 51°20' E 004°17'0 0.0
2014-Apr-10 04:34N 51°20' E 004°17'0 0.0
2014-Apr-10 03:34N 51°20' E 004°17'0 0.0
2014-Apr-10 02:33N 51°20' E 004°17'0 0.0
2014-Apr-10 01:33N 51°20' E 004°17'0 0.0
2014-Apr-10 00:33N 51°20' E 004°17'0 0.0
2014-Apr-09 23:33N 51°20' E 004°17'0 0.0
2014-Apr-09 22:33N 51°20' E 004°17'0 0.0
2014-Apr-09 21:33N 51°20' E 004°17'0 0.0
2014-Apr-09 20:33N 51°20' E 004°17'0 0.0
2014-Apr-09 19:33N 51°20' E 004°17'0 0.1
2014-Apr-09 18:33N 51°20' E 004°16'9 8.7
2014-Apr-09 17:34N 51°23' E 004°03'1110.7
2014-Apr-09 16:33N 51°22' E 003°46'1212.1
2014-Apr-09 15:33N 51°25' E 003°27'1717.1
2014-Apr-09 14:33N 51°24' E 003°00'1414.3
2014-Apr-09 13:33N 51°22' E 002°37'1312.6
2014-Apr-09 12:34N 51°18' E 002°18'1212.2
2014-Apr-09 11:33N 51°12' E 002°01'1212.4
2014-Apr-09 10:33N 51°06' E 001°44'1312.9
2014-Apr-09 09:33N 50°57' E 001°30'1412.9
2014-Apr-09 08:30N 50°44' E 001°23'3712.3
2014-Apr-09 05:29N 50°24' E 000°33'  

Dump ship's entire track history

sailing weather and tide predictions

MSC Davos — A8IG3 — position and weather